Airfield :
LOGIN :

Register | Disclaimer

   EN    FR    IT 

 










Legend :    VFR   Marginal VFR   IFR   Intensive IFR   Very Intensive IFR
Visi :
Ceiling :
>= 8 km
>= 3000ft
5 to 8 km
1000 to 3000 ft
1500m to 5 km
500 to 1000 ft
800 to 1500m
200 to 500 ft
< 800m
< 200 ft
Symbols :   Thunderstorms  Fog  Heavy snow  Heavy precipitations  Wind > 20 kt
SIGMETs :     Misc.  Thunderstorms  Icing  Turbulence  Mountain Waves  Volcanic Ashes






- Airport Elevation : 236 ft
- IATA code : MMX


ESMS - Malmö Sturup

CURRENT METAR :
  • 021220Z 04009KT 9999 OVC008 04/03 Q1030

EXPIRED METARs :
  • 021150Z 05008KT 9999 -RA OVC007 04/03 Q1030
  • 021120Z 04008KT 9999 -RA OVC006 04/03 Q1030
  • 021050Z 03004KT 9999 BKN006 BKN008 OVC010 03/03 Q1030
  • 021020Z 04006KT 9999 -RA SCT006 BKN009 BKN018 03/02 Q1030
  • 020950Z 05007KT 9999 OVC009 03/02 Q1030

TAF TAF ESMS
Valid from the 02 at 12:00 until the 03 at 12:00 UTC


021105Z 0212/0312 04008KT 9999 SCT008 BKN020
TEMPO 0212/0221 BKN007
TEMPO 0311/0312 3000 -SN BKN008



MET'MAP, your aeronautical weather chart ! - Copyright ORBIFLY December 2007 - Disclaimer

ORBIFLY MET'MAP TEAM :

Programming & Development : Alexandra Zaïnal
Original concept : Baudouin d'Aumeries
Technical & hardware support : Manuel Goepfert
Assistance : Marc-Olivier Méhu




SOURCES & CREDITS :

   NOAA